createdAt,value
2018-02-20T00:02:18.097Z,1.42
2018-02-20T00:04:46.943Z,1.49
2018-02-20T00:07:12.788Z,1.46
2018-02-20T00:09:42.307Z,1.43
2018-02-20T00:12:08.168Z,1.49
2018-02-20T00:14:37.163Z,1.56
2018-02-20T00:17:03.016Z,1.61
2018-02-20T00:19:32.165Z,1.56
2018-02-20T00:21:58.028Z,1.56
2018-02-20T00:24:27.198Z,1.59
2018-02-20T00:26:53.033Z,1.57
2018-02-20T00:29:18.905Z,1.57
2018-02-20T00:31:44.756Z,1.54
2018-02-20T00:34:10.597Z,1.59
2018-02-20T00:36:37.995Z,1.62
2018-02-20T00:39:03.865Z,1.64
2018-02-20T00:41:32.964Z,1.61
2018-02-20T00:43:58.830Z,1.62
2018-02-20T00:46:28.227Z,1.64
2018-02-20T00:48:54.113Z,1.62
2018-02-20T00:51:23.302Z,1.58
2018-02-20T00:53:49.144Z,1.53
2018-02-20T00:56:16.678Z,1.60
2018-02-20T00:58:42.539Z,1.61
2018-02-20T01:01:12.170Z,1.66
2018-02-20T01:03:38.044Z,1.51
2018-02-20T01:06:03.899Z,1.50
2018-02-20T01:08:29.742Z,1.52
2018-02-20T01:10:55.649Z,1.49
2018-02-20T01:13:23.454Z,1.44
2018-02-20T01:15:49.276Z,1.49
2018-02-20T01:18:18.999Z,1.46
2018-02-20T01:20:44.858Z,1.50
2018-02-20T01:23:13.955Z,1.39
2018-02-20T01:25:39.859Z,1.28
2018-02-20T01:28:07.164Z,1.38
2018-02-20T01:30:33.010Z,1.42
2018-02-20T01:33:01.754Z,1.48
2018-02-20T01:35:31.438Z,1.51
2018-02-20T01:37:57.327Z,1.56
2018-02-20T01:40:23.192Z,1.56
2018-02-20T01:42:49.033Z,1.58
2018-02-20T01:45:15.225Z,1.55
2018-02-20T01:47:41.053Z,1.52
2018-02-20T01:50:08.446Z,1.56
2018-02-20T01:52:34.310Z,1.54
2018-02-20T01:55:03.653Z,1.57
2018-02-20T01:57:29.526Z,1.59
2018-02-20T01:59:59.119Z,1.57
2018-02-20T02:02:24.961Z,1.59
2018-02-20T02:04:52.627Z,1.60
2018-02-20T02:07:18.515Z,1.50
2018-02-20T02:09:47.382Z,1.46
2018-02-20T02:12:13.210Z,1.40
2018-02-20T02:14:41.945Z,1.43
2018-02-20T02:17:07.834Z,1.45
2018-02-20T02:19:33.676Z,1.48
2018-02-20T02:21:59.651Z,1.48
2018-02-20T02:24:25.506Z,1.47
2018-02-20T02:26:54.490Z,1.46
2018-02-20T02:29:20.328Z,1.49
2018-02-20T02:31:49.669Z,1.51
2018-02-20T02:34:15.499Z,1.48
2018-02-20T02:36:42.896Z,1.50
2018-02-20T02:39:08.734Z,1.48
2018-02-20T02:41:36.884Z,1.51
2018-02-20T02:44:02.746Z,1.52
2018-02-20T02:46:28.602Z,1.55
2018-02-20T02:48:54.504Z,1.52
2018-02-20T02:51:20.380Z,1.50
2018-02-20T02:53:48.998Z,1.54
2018-02-20T02:56:14.859Z,1.52
2018-02-20T02:58:44.669Z,1.53
2018-02-20T03:01:10.512Z,1.50
2018-02-20T03:03:40.166Z,1.42
2018-02-20T03:06:06.056Z,1.41
2018-02-20T03:08:33.365Z,1.41
2018-02-20T03:10:59.224Z,1.39
2018-02-20T03:15:56.015Z,1.39
2018-02-20T03:18:23.221Z,1.39
2018-02-20T03:20:49.063Z,1.42
2018-02-20T03:23:17.499Z,1.46
2018-02-20T03:25:43.361Z,1.47
2018-02-20T03:30:40.255Z,1.43
2018-02-20T03:33:06.146Z,1.28
2018-02-20T03:35:32.028Z,1.28
2018-02-20T03:37:57.870Z,1.33
2018-02-20T03:40:24.381Z,1.36
2018-02-20T03:42:50.267Z,1.37
2018-02-20T03:45:19.134Z,1.40
2018-02-20T03:47:45.116Z,1.40
2018-02-20T03:50:14.103Z,1.46
2018-02-20T03:52:39.954Z,1.49
2018-02-20T03:55:09.474Z,1.48
2018-02-20T03:57:35.358Z,1.35
2018-02-20T04:00:04.518Z,1.33
2018-02-20T04:02:30.358Z,1.36
2018-02-20T04:04:57.828Z,1.38
2018-02-20T04:07:23.669Z,1.41
2018-02-20T04:09:49.558Z,1.38
2018-02-20T04:12:15.398Z,1.32
2018-02-20T04:14:41.258Z,1.29
2018-02-20T04:17:10.854Z,1.24
2018-02-20T04:19:36.706Z,1.19
2018-02-20T04:22:06.169Z,1.22
2018-02-20T04:24:32.014Z,1.26
2018-02-20T04:26:59.332Z,1.28
2018-02-20T04:29:25.182Z,1.37
2018-02-20T04:31:54.721Z,1.32
2018-02-20T04:34:20.561Z,1.29
2018-02-20T04:36:49.842Z,1.28
2018-02-20T04:39:15.685Z,1.31
2018-02-20T04:41:43.098Z,1.16
2018-02-20T04:44:08.933Z,1.10
2018-02-20T04:46:34.797Z,1.14
2018-02-20T04:49:00.675Z,1.20
2018-02-20T04:51:26.517Z,1.19
2018-02-20T04:53:55.797Z,1.16
2018-02-20T04:56:21.664Z,1.08
2018-02-20T04:58:51.153Z,1.12
2018-02-20T05:01:17.015Z,1.22
2018-02-20T05:03:44.618Z,1.07
2018-02-20T05:06:10.478Z,1.07
2018-02-20T05:08:39.949Z,1.12
2018-02-20T05:11:05.797Z,1.08
2018-02-20T05:13:33.553Z,1.09
2018-02-20T05:15:59.407Z,1.12
2018-02-20T05:20:56.142Z,1.15
2018-02-20T05:23:22.079Z,1.17
2018-02-20T05:25:47.927Z,1.25
2018-02-20T05:28:13.777Z,1.28
2018-02-20T05:30:40.661Z,1.29
2018-02-20T05:33:06.494Z,1.26
2018-02-20T05:35:36.292Z,1.23
2018-02-20T05:38:02.165Z,1.28
2018-02-20T05:40:29.809Z,1.19
2018-02-20T05:42:55.654Z,0.99
2018-02-20T05:45:25.314Z,0.98
2018-02-20T05:47:51.174Z,0.80
2018-02-20T05:50:20.273Z,0.71
2018-02-20T05:52:46.130Z,0.55
2018-02-20T05:55:15.396Z,0.68
2018-02-20T05:57:41.232Z,0.88
2018-02-20T06:00:07.117Z,0.96
2018-02-20T06:02:33.004Z,0.97
2018-02-20T06:04:58.865Z,1.04
2018-02-20T06:07:25.196Z,1.09
2018-02-20T06:09:51.829Z,1.08
2018-02-20T06:12:21.393Z,1.05
2018-02-20T06:14:47.239Z,1.06
2018-02-20T06:17:16.638Z,1.07
2018-02-20T06:19:42.495Z,1.07
2018-02-20T06:22:10.082Z,1.02
2018-02-20T06:24:35.930Z,1.09
2018-02-20T06:27:05.204Z,1.12
2018-02-20T06:29:31.053Z,1.16
2018-02-20T06:32:00.532Z,1.18
2018-02-20T06:34:26.384Z,1.21
2018-02-20T06:36:52.224Z,1.19
2018-02-20T06:39:18.085Z,1.19
2018-02-20T06:41:43.949Z,1.18
2018-02-20T06:44:10.549Z,1.17
2018-02-20T06:46:36.399Z,1.19
2018-02-20T06:49:05.235Z,1.15
2018-02-20T06:51:31.068Z,1.18
2018-02-20T06:53:59.681Z,1.17
2018-02-20T06:56:25.577Z,1.17
2018-02-20T07:01:22.335Z,1.14
2018-02-20T07:03:50.225Z,1.16
2018-02-20T07:06:16.071Z,1.22
2018-02-20T07:08:45.439Z,1.25
2018-02-20T07:11:11.279Z,1.21
2018-02-20T07:13:37.115Z,1.22
2018-02-20T07:16:03.001Z,1.24
2018-02-20T07:18:28.843Z,1.28
2018-02-20T07:20:56.643Z,1.31
2018-02-20T07:23:22.507Z,1.38
2018-02-20T07:25:52.113Z,1.42
2018-02-20T07:28:17.984Z,1.45
2018-02-20T07:31:00.397Z,1.48
2018-02-20T07:33:26.248Z,1.52
2018-02-20T07:35:52.068Z,1.54
2018-02-20T07:38:17.943Z,1.61
2018-02-20T07:40:43.798Z,1.55
2018-02-20T07:43:09.654Z,1.55
2018-02-20T07:45:35.531Z,1.54
2018-02-20T07:48:01.388Z,1.61
2018-02-20T07:50:27.243Z,1.59
2018-02-20T07:52:53.110Z,1.56
2018-02-20T07:55:18.945Z,1.53
2018-02-20T07:57:44.802Z,1.61
2018-02-20T08:00:10.633Z,1.44
2018-02-20T08:02:36.563Z,1.47
2018-02-20T08:05:02.439Z,1.47
2018-02-20T08:09:57.205Z,1.64
2018-02-20T08:12:26.853Z,1.74
2018-02-20T08:14:52.717Z,1.73
2018-02-20T08:17:20.492Z,1.76
2018-02-20T08:19:46.362Z,1.85
2018-02-20T08:22:15.651Z,1.96
2018-02-20T08:24:41.534Z,1.99
2018-02-20T08:27:07.437Z,1.99
2018-02-20T08:29:33.265Z,2.00
2018-02-20T08:31:59.129Z,2.04
2018-02-20T08:34:26.890Z,2.00
2018-02-20T08:36:52.785Z,1.86
2018-02-20T08:39:22.378Z,1.71
2018-02-20T08:41:48.275Z,1.68
2018-02-20T08:44:17.747Z,1.66
2018-02-20T08:46:43.629Z,1.78
2018-02-20T08:49:11.261Z,1.84
2018-02-20T08:51:37.087Z,1.98
2018-02-20T08:54:06.186Z,2.12
2018-02-20T08:56:32.054Z,2.22
2018-02-20T08:59:01.132Z,2.27
2018-02-20T09:01:27.034Z,2.20
2018-02-20T09:03:52.886Z,2.12
2018-02-20T09:06:18.757Z,2.06
2018-02-20T09:08:44.583Z,1.97
2018-02-20T09:11:12.386Z,2.00
2018-02-20T09:13:38.247Z,2.08
2018-02-20T09:16:07.686Z,2.10
2018-02-20T09:18:33.544Z,2.13
2018-02-20T09:21:02.915Z,2.18
2018-02-20T09:23:28.766Z,2.14
2018-02-20T09:25:57.802Z,2.22
2018-02-20T09:28:23.623Z,2.34
2018-02-20T09:30:50.771Z,2.14
2018-02-20T09:33:16.631Z,2.25
2018-02-20T09:35:45.534Z,2.40
2018-02-20T09:38:11.408Z,2.64
2018-02-20T09:40:37.311Z,2.79
2018-02-20T09:43:03.152Z,3.01
2018-02-20T09:45:29.044Z,3.21
2018-02-20T09:47:58.829Z,3.36
2018-02-20T09:50:24.703Z,3.40
2018-02-20T09:52:52.194Z,3.46
2018-02-20T10:01:03.812Z,3.69
2018-02-20T10:03:29.665Z,3.83
2018-02-20T10:05:55.530Z,3.86
2018-02-20T10:08:21.380Z,4.02
2018-02-20T10:10:47.256Z,3.94
2018-02-20T10:13:13.092Z,3.72
2018-02-20T10:15:38.958Z,3.97
2018-02-20T10:18:04.811Z,3.87
2018-02-20T10:20:30.655Z,3.99
2018-02-20T10:22:56.480Z,4.22
2018-02-20T10:25:22.328Z,4.26
2018-02-20T10:27:48.174Z,4.26
2018-02-20T10:30:14.052Z,4.30
2018-02-20T10:32:39.926Z,4.30
2018-02-20T10:35:05.781Z,4.21
2018-02-20T10:37:31.656Z,4.42
2018-02-20T10:39:57.488Z,4.62
2018-02-20T10:42:23.371Z,4.77
2018-02-20T10:44:49.236Z,4.64
2018-02-20T10:47:15.094Z,4.74
2018-02-20T10:49:40.916Z,4.87
2018-02-20T10:52:06.755Z,4.95
2018-02-20T10:54:32.630Z,4.88
2018-02-20T10:56:58.458Z,4.91
2018-02-20T10:59:24.302Z,4.94
2018-02-20T11:01:50.184Z,4.90
2018-02-20T11:04:16.085Z,4.82
2018-02-20T11:06:41.944Z,4.89
2018-02-20T11:09:07.837Z,4.74
2018-02-20T11:11:33.706Z,4.71
2018-02-20T11:13:59.572Z,4.82
2018-02-20T11:16:25.417Z,4.82
2018-02-20T11:18:51.256Z,4.85
2018-02-20T11:21:17.114Z,4.83
2018-02-20T11:23:42.969Z,4.63
2018-02-20T11:26:08.821Z,4.67
2018-02-20T11:28:34.674Z,4.70
2018-02-20T11:31:00.522Z,4.58
2018-02-20T11:33:26.396Z,4.23
2018-02-20T11:35:52.234Z,4.42
2018-02-20T11:38:18.082Z,4.55
2018-02-20T11:40:43.928Z,4.58
2018-02-20T11:43:09.783Z,4.64
2018-02-20T11:45:35.653Z,4.58
2018-02-20T11:48:02.480Z,4.41
2018-02-20T11:50:28.337Z,4.50
2018-02-20T11:52:57.759Z,4.56
2018-02-20T11:55:23.610Z,4.58
2018-02-20T11:57:53.018Z,4.42
2018-02-20T12:00:18.915Z,4.42
2018-02-20T12:02:47.922Z,4.61
2018-02-20T12:05:13.764Z,4.80
2018-02-20T12:07:39.636Z,4.80
2018-02-20T12:10:05.499Z,4.67
2018-02-20T12:12:31.375Z,4.77
2018-02-20T12:14:58.653Z,4.70
2018-02-20T12:17:24.511Z,4.73
2018-02-20T12:19:53.146Z,4.79
2018-02-20T12:22:19.038Z,4.74
2018-02-20T12:24:47.990Z,4.65
2018-02-20T12:27:13.830Z,4.65
2018-02-20T12:29:42.980Z,4.62
2018-02-20T12:32:08.824Z,4.71
2018-02-20T12:34:38.707Z,4.52
2018-02-20T12:37:04.552Z,4.12
2018-02-20T12:39:33.558Z,4.36
2018-02-20T12:41:59.404Z,4.62
2018-02-20T12:44:25.259Z,4.56
2018-02-20T12:46:51.125Z,4.44
2018-02-20T12:49:16.970Z,4.41
2018-02-20T12:51:44.158Z,4.44
2018-02-20T12:54:10.001Z,4.35
2018-02-20T12:56:39.165Z,4.24
2018-02-20T12:59:05.045Z,3.97
2018-02-20T13:01:34.132Z,3.92
2018-02-20T13:04:00.021Z,3.72
2018-02-20T13:06:29.111Z,3.82
2018-02-20T13:08:54.978Z,3.88
2018-02-20T13:11:24.239Z,3.80
2018-02-20T13:13:50.060Z,3.90
2018-02-20T13:16:17.485Z,3.97
2018-02-20T13:18:43.336Z,3.93
2018-02-20T13:21:09.219Z,3.90
2018-02-20T13:23:35.079Z,3.77
2018-02-20T13:26:00.934Z,3.92
2018-02-20T13:28:30.756Z,4.04
2018-02-20T13:30:56.641Z,3.97
2018-02-20T13:33:24.256Z,3.80
2018-02-20T13:35:50.117Z,3.91
2018-02-20T13:38:19.926Z,3.80
2018-02-20T13:40:45.781Z,3.61
2018-02-20T13:43:13.263Z,3.52
2018-02-20T13:45:39.145Z,3.43
2018-02-20T13:48:08.592Z,3.36
2018-02-20T13:50:34.457Z,3.34
2018-02-20T13:53:03.493Z,3.15
2018-02-20T13:55:29.334Z,3.24
2018-02-20T13:57:55.215Z,3.45
2018-02-20T14:00:21.054Z,3.56
2018-02-20T14:02:46.922Z,3.72
2018-02-20T14:05:15.956Z,3.64
2018-02-20T14:07:41.852Z,3.64
2018-02-20T14:10:08.827Z,3.69
2018-02-20T14:12:34.697Z,3.72
2018-02-20T14:15:03.330Z,3.56
2018-02-20T14:17:29.187Z,3.45
2018-02-20T14:22:26.035Z,3.70
2018-02-20T14:24:53.199Z,3.51
2018-02-20T14:27:19.036Z,3.38
2018-02-20T14:29:47.903Z,3.65
2018-02-20T14:32:13.748Z,3.93
2018-02-20T14:34:39.637Z,4.19
2018-02-20T14:37:05.516Z,4.23
2018-02-20T14:39:31.359Z,4.35
2018-02-20T14:42:00.680Z,4.34
2018-02-20T14:44:26.542Z,4.34
2018-02-20T14:46:56.164Z,4.28
2018-02-20T14:49:21.993Z,4.27
2018-02-20T14:51:49.681Z,4.24
2018-02-20T14:54:15.556Z,4.08
2018-02-20T14:56:44.838Z,4.06
2018-02-20T14:59:10.723Z,4.13
2018-02-20T15:01:40.225Z,4.12
2018-02-20T15:04:06.119Z,4.06
2018-02-20T15:06:33.914Z,4.00
2018-02-20T15:08:59.756Z,3.93
2018-02-20T15:11:25.623Z,3.74
2018-02-20T15:13:51.461Z,3.88
2018-02-20T15:16:17.368Z,3.90
2018-02-20T15:18:46.322Z,3.94
2018-02-20T15:21:12.174Z,3.93
2018-02-20T15:23:41.249Z,3.77
2018-02-20T15:26:08.102Z,3.60
2018-02-20T15:28:34.413Z,3.55
2018-02-20T15:31:00.291Z,3.34
2018-02-20T15:33:29.121Z,3.32
2018-02-20T15:35:55.003Z,3.31
2018-02-20T15:38:23.890Z,3.35
2018-02-20T15:40:49.723Z,3.33
2018-02-20T15:43:18.628Z,3.25
2018-02-20T15:45:44.483Z,3.28
2018-02-20T15:48:10.356Z,3.23
2018-02-20T15:50:36.187Z,3.01
2018-02-20T15:53:02.037Z,2.99
2018-02-20T15:55:31.306Z,3.10
2018-02-20T15:57:57.141Z,3.12
2018-02-20T16:00:26.559Z,3.14
2018-02-20T16:02:52.437Z,3.03
2018-02-20T16:05:20.037Z,3.01
2018-02-20T16:07:45.873Z,2.91
2018-02-20T16:10:15.050Z,2.91
2018-02-20T16:12:40.926Z,2.90
2018-02-20T16:15:10.107Z,2.74
2018-02-20T16:17:36.022Z,2.77
2018-02-20T16:20:04.928Z,2.70
2018-02-20T16:22:30.805Z,2.64
2018-02-20T16:24:56.654Z,2.71
2018-02-20T16:27:22.505Z,2.63
2018-02-20T16:29:48.388Z,2.64
2018-02-20T16:32:15.709Z,2.57
2018-02-20T16:34:41.564Z,2.24
2018-02-20T16:37:10.397Z,2.24
2018-02-20T16:39:38.522Z,2.24
2018-02-20T16:42:04.947Z,2.34
2018-02-20T16:44:30.809Z,2.35
2018-02-20T16:46:59.901Z,2.22
2018-02-20T16:49:25.766Z,2.13
2018-02-20T16:51:55.070Z,2.16
2018-02-20T16:54:20.938Z,2.12
2018-02-20T16:56:50.026Z,2.16
2018-02-20T16:59:15.907Z,2.25
2018-02-20T17:01:41.872Z,2.04
2018-02-20T17:04:07.764Z,1.92
2018-02-20T17:06:33.624Z,1.90
2018-02-20T17:09:01.290Z,1.92
2018-02-20T17:11:27.193Z,1.83
2018-02-20T17:13:56.267Z,1.91
2018-02-20T17:16:22.109Z,1.90
2018-02-20T17:18:51.043Z,1.90
2018-02-20T17:21:16.945Z,1.93
2018-02-20T17:23:46.021Z,1.92
2018-02-20T17:26:11.872Z,1.82
2018-02-20T17:28:41.099Z,1.75
2018-02-20T17:31:06.950Z,1.74
2018-02-20T17:33:36.072Z,1.81
2018-02-20T17:36:01.942Z,1.88
2018-02-20T17:38:27.776Z,1.83
2018-02-20T17:40:53.686Z,1.89
2018-02-20T17:43:19.555Z,1.85
2018-02-20T17:45:46.663Z,1.75
2018-02-20T17:48:12.526Z,1.76
2018-02-20T17:50:41.836Z,1.85
2018-02-20T17:53:07.717Z,1.76
2018-02-20T17:55:36.696Z,1.75
2018-02-20T17:58:02.570Z,1.81
2018-02-20T18:00:31.927Z,1.83
2018-02-20T18:02:57.804Z,1.77
2018-02-20T18:05:25.185Z,1.83
2018-02-20T18:07:51.056Z,1.86
2018-02-20T18:10:20.201Z,1.93
2018-02-20T18:12:46.052Z,1.87
2018-02-20T18:15:12.054Z,1.83
2018-02-20T18:17:37.907Z,1.86
2018-02-20T18:20:03.788Z,1.93
2018-02-20T18:22:31.441Z,1.88
2018-02-20T18:24:57.296Z,1.85
2018-02-20T18:27:26.639Z,1.85
2018-02-20T18:29:52.525Z,1.85
2018-02-20T18:32:22.047Z,1.72
2018-02-20T18:34:47.899Z,1.81
2018-02-20T18:37:16.951Z,1.79
2018-02-20T18:39:42.791Z,1.68
2018-02-20T18:42:11.905Z,1.70
2018-02-20T18:44:37.724Z,1.73
2018-02-20T18:47:06.910Z,1.75
2018-02-20T18:49:32.779Z,1.80
2018-02-20T18:51:58.633Z,1.65
2018-02-20T18:54:24.487Z,1.59
2018-02-20T18:56:50.326Z,1.46
2018-02-20T18:59:17.485Z,1.32
2018-02-20T19:01:43.406Z,1.28
2018-02-20T19:04:12.400Z,1.19
2018-02-20T19:06:38.276Z,1.19
2018-02-20T19:09:07.417Z,1.12
2018-02-20T19:11:33.265Z,1.09
2018-02-20T19:14:02.218Z,1.06
2018-02-20T19:16:28.072Z,1.01
2018-02-20T19:18:57.461Z,0.83
2018-02-20T19:21:23.317Z,0.63
2018-02-20T19:23:50.536Z,0.60
2018-02-20T19:26:16.361Z,0.61
2018-02-20T19:28:42.259Z,0.65
2018-02-20T19:31:08.125Z,0.73
2018-02-20T19:33:33.986Z,0.82
2018-02-20T19:36:03.129Z,0.88
2018-02-20T19:38:28.967Z,0.99
2018-02-20T19:40:58.203Z,0.92
2018-02-20T19:43:24.024Z,0.99
2018-02-20T19:45:53.150Z,1.12
2018-02-20T19:48:19.017Z,1.21
2018-02-20T19:50:47.974Z,1.19
2018-02-20T19:53:13.818Z,1.00
2018-02-20T19:55:40.911Z,0.93
2018-02-20T19:58:06.761Z,1.07
2018-02-20T20:03:03.532Z,1.26
2018-02-20T20:05:29.380Z,1.19
2018-02-20T20:07:55.240Z,1.00
2018-02-20T20:10:21.114Z,0.93
2018-02-20T20:12:47.650Z,0.99
2018-02-20T20:15:13.522Z,1.10
2018-02-20T20:17:42.738Z,1.16
2018-02-20T20:20:08.594Z,1.13
2018-02-20T20:22:37.865Z,1.07
2018-02-20T20:25:03.753Z,1.10
2018-02-20T20:27:32.765Z,1.17
2018-02-20T20:29:58.609Z,1.17
2018-02-20T20:32:27.924Z,1.10
2018-02-20T20:34:53.752Z,1.10
2018-02-20T20:37:21.233Z,1.14
2018-02-20T20:39:47.087Z,1.11
2018-02-20T20:42:12.938Z,1.20
2018-02-20T20:44:38.795Z,1.15
2018-02-20T20:47:04.640Z,1.06
2018-02-20T20:49:33.990Z,0.99
2018-02-20T20:51:59.850Z,1.09
2018-02-20T20:54:28.942Z,1.03
2018-02-20T20:56:54.837Z,0.97
2018-02-20T20:59:23.708Z,1.07
2018-02-20T21:01:49.579Z,1.12
2018-02-20T21:04:18.742Z,1.17
2018-02-20T21:06:44.615Z,1.13
2018-02-20T21:09:11.713Z,1.10
2018-02-20T21:11:37.587Z,0.87
2018-02-20T21:14:07.294Z,0.84
2018-02-20T21:16:33.151Z,0.85
2018-02-20T21:18:59.050Z,0.93
2018-02-20T21:21:24.915Z,0.90
2018-02-20T21:23:50.775Z,0.87
2018-02-20T21:26:19.665Z,0.84
2018-02-20T21:28:45.542Z,0.87
2018-02-20T21:31:14.569Z,0.94
2018-02-20T21:33:40.421Z,0.98
2018-02-20T21:36:07.707Z,0.99
2018-02-20T21:38:33.533Z,1.00
2018-02-20T21:41:02.338Z,1.05
2018-02-20T21:43:28.192Z,1.00
2018-02-20T21:45:57.043Z,0.93
2018-02-20T21:48:22.903Z,0.89
2018-02-20T21:53:19.486Z,0.70
2018-02-20T21:55:45.334Z,0.67
2018-02-20T21:58:11.320Z,0.60
2018-02-20T22:00:37.179Z,0.65
2018-02-20T22:03:04.251Z,0.61
2018-02-20T22:05:30.102Z,0.63
2018-02-20T22:07:59.125Z,0.68
2018-02-20T22:10:24.977Z,0.68
2018-02-20T22:12:54.143Z,0.70
2018-02-20T22:15:20.030Z,0.73
2018-02-20T22:17:47.809Z,0.67
2018-02-20T22:20:13.688Z,0.69
2018-02-20T22:22:43.539Z,0.63
2018-02-20T22:25:09.407Z,0.64
2018-02-20T22:27:38.807Z,0.61
2018-02-20T22:30:04.685Z,0.64
2018-02-20T22:32:30.541Z,0.62
2018-02-20T22:34:56.391Z,0.65
2018-02-20T22:37:22.250Z,0.59
2018-02-20T22:39:49.686Z,0.55
2018-02-20T22:42:15.525Z,0.56
2018-02-20T22:44:44.785Z,0.50
2018-02-20T22:47:10.641Z,0.60
2018-02-20T22:49:40.112Z,0.64
2018-02-20T22:52:05.959Z,0.52
2018-02-20T22:54:33.458Z,0.53
2018-02-20T22:56:59.316Z,0.59
2018-02-20T22:59:29.598Z,0.62
2018-02-20T23:01:55.477Z,0.63
2018-02-20T23:04:22.404Z,0.66
2018-02-20T23:06:48.301Z,0.68
2018-02-20T23:09:14.161Z,0.67
2018-02-20T23:11:46.090Z,0.66
2018-02-20T23:14:11.934Z,0.65
2018-02-20T23:16:37.776Z,0.68
2018-02-20T23:19:03.637Z,0.71
2018-02-20T23:21:29.476Z,0.65
2018-02-20T23:23:55.343Z,0.70
2018-02-20T23:26:24.173Z,0.69
2018-02-20T23:28:50.145Z,0.71
2018-02-20T23:31:19.147Z,0.72
2018-02-20T23:33:45.000Z,0.73
2018-02-20T23:36:14.279Z,0.74
2018-02-20T23:38:40.172Z,0.73
2018-02-20T23:41:09.321Z,0.65
2018-02-20T23:43:35.128Z,0.64
2018-02-20T23:46:00.956Z,0.51
2018-02-20T23:48:28.288Z,0.56
2018-02-20T23:51:00.368Z,0.50
2018-02-20T23:53:26.223Z,0.50
2018-02-20T23:55:52.108Z,0.51
2018-02-20T23:58:17.946Z,0.52
